First Ferry Vi — VRS4293 — position and weather

sailwx.info

Track history (hours):
 
Tides and Currents Weather Stations Pressure Air Temp Water Temp Dewpoint Dewpoint Depression Visibility Wind Speed Wind Dir Waves Ship Positions

First Ferry Vi

Last reported at 2016-Feb-09 15:33 UTC. Time now 2016-Feb-09 15:51 UTC.
Position N 22°17' E 114°10'.

Length 36 m; draft 1.8 m.

Type: Tug. MMSI: 477995028.

Date/timePositionNaut miles runAvg speedWind from/ knotsBaromVisibWave heightAir tempDewpointWater temp
2016-Feb-09 15:33N 22°17' E 114°10'7 4.8
2016-Feb-09 14:04N 22°16' E 114°02'713.7
2016-Feb-09 13:33N 22°17' E 114°10'3 2.6
2016-Feb-09 12:33N 22°20' E 114°09'0 0.0
2016-Feb-09 11:33N 22°20' E 114°09'0 0.0
2016-Feb-09 10:30N 22°20' E 114°09'0 0.0
2016-Feb-09 09:32N 22°20' E 114°09'3 1.3
2016-Feb-09 07:33N 22°17' E 114°10'0 0.1
2016-Feb-09 05:33N 22°17' E 114°10'7 5.6
2016-Feb-09 04:18N 22°16' E 114°02'4 2.3
2016-Feb-09 02:33N 22°17' E 114°06'3 3.3
2016-Feb-09 01:33N 22°20' E 114°09'0 0.0
2016-Feb-09 00:31N 22°20' E 114°09'0 0.0
2016-Feb-08 23:32N 22°20' E 114°09'8 1.0
2016-Feb-08 16:04N 22°16' E 114°02'814.9
2016-Feb-08 15:33N 22°17' E 114°10'8 5.3
2016-Feb-08 14:04N 22°16' E 114°01'815.3
2016-Feb-08 13:33N 22°17' E 114°10'7 4.8
2016-Feb-08 12:05N 22°16' E 114°02'713.3
2016-Feb-08 11:34N 22°17' E 114°10'8 5.3
2016-Feb-08 10:05N 22°16' E 114°01'815.0
2016-Feb-08 09:33N 22°17' E 114°10'0 0.0
2016-Feb-08 07:34N 22°17' E 114°10'0 0.0
2016-Feb-08 05:33N 22°17' E 114°10'7 5.9
2016-Feb-08 04:20N 22°16' E 114°02'5 2.6
2016-Feb-08 02:33N 22°17' E 114°07'3 3.0
2016-Feb-08 01:33N 22°20' E 114°09'0 0.0
2016-Feb-08 00:33N 22°20' E 114°09'0 0.0
2016-Feb-07 23:33N 22°20' E 114°09'3 0.3
2016-Feb-07 15:33N 22°17' E 114°10'0 0.0
2016-Feb-07 13:33N 22°17' E 114°10'0 0.0
2016-Feb-07 11:33N 22°17' E 114°10'3 2.6
2016-Feb-07 10:33N 22°19' E 114°12'0 0.0
2016-Feb-07 09:33N 22°19' E 114°12'10 6.4
2016-Feb-07 08:04N 22°16' E 114°02'713.9
2016-Feb-07 07:33N 22°17' E 114°10'7 4.5
2016-Feb-07 06:04N 22°16' E 114°02'713.3
2016-Feb-07 05:33N 22°17' E 114°10'7 6.3
2016-Feb-07 04:25N 22°16' E 114°02'4 2.3
2016-Feb-07 02:33N 22°17' E 114°06'5 5.2
2016-Feb-07 01:33N 22°19' E 114°12'0 0.0
2016-Feb-07 00:33N 22°19' E 114°12'0 0.0
2016-Feb-06 23:33N 22°19' E 114°12'3 0.3
2016-Feb-06 15:34N 22°17' E 114°09'5 4.3
2016-Feb-06 14:19N 22°17' E 114°04'4 5.3
2016-Feb-06 13:33N 22°17' E 114°08'2 0.8
2016-Feb-06 11:34N 22°17' E 114°10'7 5.8
2016-Feb-06 10:22N 22°16' E 114°02'7 8.9
2016-Feb-06 09:33N 22°17' E 114°10'5 3.6
2016-Feb-06 08:08N 22°17' E 114°05'5 8.2
2016-Feb-06 07:33N 22°17' E 114°10'4 3.2
2016-Feb-06 06:10N 22°17' E 114°05'4 7.3
2016-Feb-06 05:33N 22°17' E 114°10'3 2.7
2016-Feb-06 04:33N 22°19' E 114°12'2 1.9
2016-Feb-06 03:33N 22°17' E 114°11'2 0.9
2016-Feb-06 01:34N 22°18' E 114°09'1 1.3
2016-Feb-06 00:33N 22°19' E 114°09'7 5.4
2016-Feb-05 23:20N 22°15' E 114°04'2 0.1
2016-Feb-05 10:18N 22°17' E 114°04'7 9.4
2016-Feb-05 09:33N 22°18' E 114°12'1 0.8
2016-Feb-05 08:33N 22°19' E 114°12'0 0.0
2016-Feb-05 07:33N 22°19' E 114°12'0 0.0
2016-Feb-05 06:33N 22°19' E 114°12'1 1.4
2016-Feb-05 05:33N 22°18' E 114°11'1 0.7
2016-Feb-05 03:33N 22°17' E 114°10'4 2.6
2016-Feb-05 02:03N 22°17' E 114°06'4 8.5
2016-Feb-05 01:34N 22°17' E 114°10'1 1.4
2016-Feb-05 00:33N 22°18' E 114°09'5 4.4
2016-Feb-04 23:18N 22°16' E 114°04'5 0.7
2016-Feb-04 15:33N 22°17' E 114°10'5 3.6
2016-Feb-04 14:18N 22°17' E 114°05'5 6.1
2016-Feb-04 13:33N 22°17' E 114°10'0 0.1
2016-Feb-04 12:34N 22°17' E 114°10'4 3.6
2016-Feb-04 11:31N 22°17' E 114°06'1 0.7
2016-Feb-04 10:13N 22°17' E 114°06'3 4.3
2016-Feb-04 09:33N 22°19' E 114°09'1 1.2
2016-Feb-04 08:33N 22°20' E 114°09'0 0.0
2016-Feb-04 07:33N 22°20' E 114°09'0 0.0
2016-Feb-04 06:33N 22°20' E 114°09'0 0.0
2016-Feb-04 05:31N 22°20' E 114°09'0 0.0
2016-Feb-04 04:33N 22°20' E 114°09'0 0.0
2016-Feb-04 03:33N 22°20' E 114°09'0 0.0
2016-Feb-04 02:33N 22°20' E 114°09'0 0.0
2016-Feb-04 01:33N 22°20' E 114°09'1 1.0
2016-Feb-04 00:33N 22°19' E 114°09'4 2.8
2016-Feb-03 23:14N 22°17' E 114°06'4 0.5
2016-Feb-03 15:33N 22°17' E 114°10'4 3.0
2016-Feb-03 14:15N 22°17' E 114°05'5 7.3
2016-Feb-03 13:33N 22°18' E 114°11'1 1.1
2016-Feb-03 12:34N 22°17' E 114°10'4 3.8
2016-Feb-03 11:31N 22°17' E 114°05'4 4.3
2016-Feb-03 10:33N 22°19' E 114°09'1 0.7
2016-Feb-03 09:26N 22°20' E 114°09'0 0.0
2016-Feb-03 07:24N 22°20' E 114°09'1 0.7
2016-Feb-03 05:33N 22°18' E 114°09'5 3.4
2016-Feb-03 04:04N 22°16' E 114°04'5 9.8
2016-Feb-03 03:33N 22°17' E 114°10'1 0.3
2016-Feb-03 01:33N 22°17' E 114°10'0 0.2
2016-Feb-03 00:33N 22°17' E 114°10'6 4.7
2016-Feb-02 23:18N 22°16' E 114°04'5 0.7
2016-Feb-02 15:34N 22°17' E 114°10'6 5.4
2016-Feb-02 14:21N 22°16' E 114°03'6 8.1
2016-Feb-02 13:33N 22°17' E 114°10'0 0.1
2016-Feb-02 12:33N 22°17' E 114°10'4 4.0
2016-Feb-02 11:32N 22°16' E 114°05'1 0.6
2016-Feb-02 10:18N 22°17' E 114°05'6 8.0
2016-Feb-02 09:34N 22°18' E 114°11'2 1.6
2016-Feb-02 08:33N 22°19' E 114°12'0 0.0
2016-Feb-02 07:33N 22°19' E 114°12'0 0.0
2016-Feb-02 06:33N 22°19' E 114°12'1 1.1
2016-Feb-02 05:34N 22°18' E 114°12'7 4.6
2016-Feb-02 04:04N 22°16' E 114°04'5 9.9
2016-Feb-02 03:33N 22°17' E 114°10'5 3.2
2016-Feb-02 02:05N 22°16' E 114°05'5 9.2
2016-Feb-02 01:33N 22°18' E 114°09'0 0.2
2016-Feb-02 00:33N 22°19' E 114°09'5 4.3
2016-Feb-01 23:18N 22°16' E 114°04'5 0.7
2016-Feb-01 15:33N 22°17' E 114°10'7 6.2
2016-Feb-01 14:24N 22°16' E 114°02'910.6
2016-Feb-01 13:33N 22°18' E 114°11'2 1.8
2016-Feb-01 12:33N 22°17' E 114°10'4 4.1
2016-Feb-01 11:32N 22°16' E 114°05'1 0.4
2016-Feb-01 10:18N 22°17' E 114°05'6 7.6
2016-Feb-01 09:34N 22°18' E 114°11'2 1.6
2016-Feb-01 08:34N 22°19' E 114°12'0 0.0
2016-Feb-01 07:34N 22°19' E 114°12'0 0.0
2016-Feb-01 06:34N 22°19' E 114°12'1 1.3
2016-Feb-01 05:33N 22°18' E 114°11'7 5.1
2016-Feb-01 04:07N 22°15' E 114°04'610.0
2016-Feb-01 03:33N 22°17' E 114°10'1 0.4
2016-Feb-01 01:33N 22°17' E 114°10'1 0.7
2016-Feb-01 00:33N 22°17' E 114°11'8 6.4
2016-Jan-31 23:21N 22°15' E 114°03'6 0.8
2016-Jan-31 15:33N 22°17' E 114°10'0 0.0
2016-Jan-31 13:34N 22°17' E 114°10'0 0.0
2016-Jan-31 11:33N 22°17' E 114°10'3 2.7
2016-Jan-31 10:33N 22°19' E 114°12'3 2.7
2016-Jan-31 09:33N 22°17' E 114°10'5 4.2
2016-Jan-31 08:19N 22°16' E 114°04'5 6.6
2016-Jan-31 07:32N 22°17' E 114°10'0 0.0
2016-Jan-31 05:33N 22°17' E 114°10'4 2.9
2016-Jan-31 04:16N 22°17' E 114°06'4 5.5
2016-Jan-31 03:33N 22°20' E 114°09'0 0.0
2016-Jan-31 02:30N 22°20' E 114°09'2 2.5
2016-Jan-31 01:33N 22°17' E 114°10'5 3.9
2016-Jan-31 00:18N 22°16' E 114°05'5 6.7
2016-Jan-30 23:33N 22°17' E 114°10'0 0.0
2016-Jan-30 16:33N 22°17' E 114°09'  
Track history (hours):
 
Tides and Currents Weather Stations Pressure Air Temp Water Temp Dewpoint Dewpoint Depression Visibility Wind Speed Wind Dir Waves Ship Positions

First Ferry Vi

Last reported at 2016-Feb-09 15:33 UTC. Time now 2016-Feb-09 15:51 UTC.
Position N 22°17' E 114°10'.

Length 36 m; draft 1.8 m.

Type: Tug. MMSI: 477995028.

Date/timePositionNaut miles runAvg speedWind from/ knotsBaromVisibWave heightAir tempDewpointWater temp
2016-Feb-09 15:33N 22°17' E 114°10'7 4.8
2016-Feb-09 14:04N 22°16' E 114°02'713.7
2016-Feb-09 13:33N 22°17' E 114°10'3 2.6
2016-Feb-09 12:33N 22°20' E 114°09'0 0.0
2016-Feb-09 11:33N 22°20' E 114°09'0 0.0
2016-Feb-09 10:30N 22°20' E 114°09'0 0.0
2016-Feb-09 09:32N 22°20' E 114°09'3 1.3
2016-Feb-09 07:33N 22°17' E 114°10'0 0.1
2016-Feb-09 05:33N 22°17' E 114°10'7 5.6
2016-Feb-09 04:18N 22°16' E 114°02'4 2.3
2016-Feb-09 02:33N 22°17' E 114°06'3 3.3
2016-Feb-09 01:33N 22°20' E 114°09'0 0.0
2016-Feb-09 00:31N 22°20' E 114°09'0 0.0
2016-Feb-08 23:32N 22°20' E 114°09'8 1.0
2016-Feb-08 16:04N 22°16' E 114°02'814.9
2016-Feb-08 15:33N 22°17' E 114°10'8 5.3
2016-Feb-08 14:04N 22°16' E 114°01'815.3
2016-Feb-08 13:33N 22°17' E 114°10'7 4.8
2016-Feb-08 12:05N 22°16' E 114°02'713.3
2016-Feb-08 11:34N 22°17' E 114°10'8 5.3
2016-Feb-08 10:05N 22°16' E 114°01'815.0
2016-Feb-08 09:33N 22°17' E 114°10'0 0.0
2016-Feb-08 07:34N 22°17' E 114°10'0 0.0
2016-Feb-08 05:33N 22°17' E 114°10'7 5.9
2016-Feb-08 04:20N 22°16' E 114°02'5 2.6
2016-Feb-08 02:33N 22°17' E 114°07'3 3.0
2016-Feb-08 01:33N 22°20' E 114°09'0 0.0
2016-Feb-08 00:33N 22°20' E 114°09'0 0.0
2016-Feb-07 23:33N 22°20' E 114°09'3 0.3
2016-Feb-07 15:33N 22°17' E 114°10'0 0.0
2016-Feb-07 13:33N 22°17' E 114°10'0 0.0
2016-Feb-07 11:33N 22°17' E 114°10'3 2.6
2016-Feb-07 10:33N 22°19' E 114°12'0 0.0
2016-Feb-07 09:33N 22°19' E 114°12'10 6.4
2016-Feb-07 08:04N 22°16' E 114°02'713.9
2016-Feb-07 07:33N 22°17' E 114°10'7 4.5
2016-Feb-07 06:04N 22°16' E 114°02'713.3
2016-Feb-07 05:33N 22°17' E 114°10'7 6.3
2016-Feb-07 04:25N 22°16' E 114°02'4 2.3
2016-Feb-07 02:33N 22°17' E 114°06'5 5.2
2016-Feb-07 01:33N 22°19' E 114°12'0 0.0
2016-Feb-07 00:33N 22°19' E 114°12'0 0.0
2016-Feb-06 23:33N 22°19' E 114°12'3 0.3
2016-Feb-06 15:34N 22°17' E 114°09'5 4.3
2016-Feb-06 14:19N 22°17' E 114°04'4 5.3
2016-Feb-06 13:33N 22°17' E 114°08'2 0.8
2016-Feb-06 11:34N 22°17' E 114°10'7 5.8
2016-Feb-06 10:22N 22°16' E 114°02'7 8.9
2016-Feb-06 09:33N 22°17' E 114°10'5 3.6
2016-Feb-06 08:08N 22°17' E 114°05'5 8.2
2016-Feb-06 07:33N 22°17' E 114°10'4 3.2
2016-Feb-06 06:10N 22°17' E 114°05'4 7.3
2016-Feb-06 05:33N 22°17' E 114°10'3 2.7
2016-Feb-06 04:33N 22°19' E 114°12'2 1.9
2016-Feb-06 03:33N 22°17' E 114°11'2 0.9
2016-Feb-06 01:34N 22°18' E 114°09'1 1.3
2016-Feb-06 00:33N 22°19' E 114°09'7 5.4
2016-Feb-05 23:20N 22°15' E 114°04'2 0.1
2016-Feb-05 10:18N 22°17' E 114°04'7 9.4
2016-Feb-05 09:33N 22°18' E 114°12'1 0.8
2016-Feb-05 08:33N 22°19' E 114°12'0 0.0
2016-Feb-05 07:33N 22°19' E 114°12'0 0.0
2016-Feb-05 06:33N 22°19' E 114°12'1 1.4
2016-Feb-05 05:33N 22°18' E 114°11'1 0.7
2016-Feb-05 03:33N 22°17' E 114°10'4 2.6
2016-Feb-05 02:03N 22°17' E 114°06'4 8.5
2016-Feb-05 01:34N 22°17' E 114°10'1 1.4
2016-Feb-05 00:33N 22°18' E 114°09'5 4.4
2016-Feb-04 23:18N 22°16' E 114°04'5 0.7
2016-Feb-04 15:33N 22°17' E 114°10'5 3.6
2016-Feb-04 14:18N 22°17' E 114°05'5 6.1
2016-Feb-04 13:33N 22°17' E 114°10'0 0.1
2016-Feb-04 12:34N 22°17' E 114°10'4 3.6
2016-Feb-04 11:31N 22°17' E 114°06'1 0.7
2016-Feb-04 10:13N 22°17' E 114°06'3 4.3
2016-Feb-04 09:33N 22°19' E 114°09'1 1.2
2016-Feb-04 08:33N 22°20' E 114°09'0 0.0
2016-Feb-04 07:33N 22°20' E 114°09'0 0.0
2016-Feb-04 06:33N 22°20' E 114°09'0 0.0
2016-Feb-04 05:31N 22°20' E 114°09'0 0.0
2016-Feb-04 04:33N 22°20' E 114°09'0 0.0
2016-Feb-04 03:33N 22°20' E 114°09'0 0.0
2016-Feb-04 02:33N 22°20' E 114°09'0 0.0
2016-Feb-04 01:33N 22°20' E 114°09'1 1.0
2016-Feb-04 00:33N 22°19' E 114°09'4 2.8
2016-Feb-03 23:14N 22°17' E 114°06'4 0.5
2016-Feb-03 15:33N 22°17' E 114°10'4 3.0
2016-Feb-03 14:15N 22°17' E 114°05'5 7.3
2016-Feb-03 13:33N 22°18' E 114°11'1 1.1
2016-Feb-03 12:34N 22°17' E 114°10'4 3.8
2016-Feb-03 11:31N 22°17' E 114°05'4 4.3
2016-Feb-03 10:33N 22°19' E 114°09'1 0.7
2016-Feb-03 09:26N 22°20' E 114°09'0 0.0
2016-Feb-03 07:24N 22°20' E 114°09'1 0.7
2016-Feb-03 05:33N 22°18' E 114°09'5 3.4
2016-Feb-03 04:04N 22°16' E 114°04'5 9.8
2016-Feb-03 03:33N 22°17' E 114°10'1 0.3
2016-Feb-03 01:33N 22°17' E 114°10'0 0.2
2016-Feb-03 00:33N 22°17' E 114°10'6 4.7
2016-Feb-02 23:18N 22°16' E 114°04'5 0.7
2016-Feb-02 15:34N 22°17' E 114°10'6 5.4
2016-Feb-02 14:21N 22°16' E 114°03'6 8.1
2016-Feb-02 13:33N 22°17' E 114°10'0 0.1
2016-Feb-02 12:33N 22°17' E 114°10'4 4.0
2016-Feb-02 11:32N 22°16' E 114°05'1 0.6
2016-Feb-02 10:18N 22°17' E 114°05'6 8.0
2016-Feb-02 09:34N 22°18' E 114°11'2 1.6
2016-Feb-02 08:33N 22°19' E 114°12'0 0.0
2016-Feb-02 07:33N 22°19' E 114°12'0 0.0
2016-Feb-02 06:33N 22°19' E 114°12'1 1.1
2016-Feb-02 05:34N 22°18' E 114°12'7 4.6
2016-Feb-02 04:04N 22°16' E 114°04'5 9.9
2016-Feb-02 03:33N 22°17' E 114°10'5 3.2
2016-Feb-02 02:05N 22°16' E 114°05'5 9.2
2016-Feb-02 01:33N 22°18' E 114°09'0 0.2
2016-Feb-02 00:33N 22°19' E 114°09'5 4.3
2016-Feb-01 23:18N 22°16' E 114°04'5 0.7
2016-Feb-01 15:33N 22°17' E 114°10'7 6.2
2016-Feb-01 14:24N 22°16' E 114°02'910.6
2016-Feb-01 13:33N 22°18' E 114°11'2 1.8
2016-Feb-01 12:33N 22°17' E 114°10'4 4.1
2016-Feb-01 11:32N 22°16' E 114°05'1 0.4
2016-Feb-01 10:18N 22°17' E 114°05'6 7.6
2016-Feb-01 09:34N 22°18' E 114°11'2 1.6
2016-Feb-01 08:34N 22°19' E 114°12'0 0.0
2016-Feb-01 07:34N 22°19' E 114°12'0 0.0
2016-Feb-01 06:34N 22°19' E 114°12'1 1.3
2016-Feb-01 05:33N 22°18' E 114°11'7 5.1
2016-Feb-01 04:07N 22°15' E 114°04'610.0
2016-Feb-01 03:33N 22°17' E 114°10'1 0.4
2016-Feb-01 01:33N 22°17' E 114°10'1 0.7
2016-Feb-01 00:33N 22°17' E 114°11'8 6.4
2016-Jan-31 23:21N 22°15' E 114°03'6 0.8
2016-Jan-31 15:33N 22°17' E 114°10'0 0.0
2016-Jan-31 13:34N 22°17' E 114°10'0 0.0
2016-Jan-31 11:33N 22°17' E 114°10'3 2.7
2016-Jan-31 10:33N 22°19' E 114°12'3 2.7
2016-Jan-31 09:33N 22°17' E 114°10'5 4.2
2016-Jan-31 08:19N 22°16' E 114°04'5 6.6
2016-Jan-31 07:32N 22°17' E 114°10'0 0.0
2016-Jan-31 05:33N 22°17' E 114°10'4 2.9
2016-Jan-31 04:16N 22°17' E 114°06'4 5.5
2016-Jan-31 03:33N 22°20' E 114°09'0 0.0
2016-Jan-31 02:30N 22°20' E 114°09'2 2.5
2016-Jan-31 01:33N 22°17' E 114°10'5 3.9
2016-Jan-31 00:18N 22°16' E 114°05'5 6.7
2016-Jan-30 23:33N 22°17' E 114°10'0 0.0
2016-Jan-30 16:33N 22°17' E 114°09'  

Dump ship's entire track history